createdAt,value
2018-09-30T00:02:10.642Z,82.80
2018-09-30T00:04:38.763Z,82.50
2018-09-30T00:07:06.924Z,83.00
2018-09-30T00:09:35.058Z,82.70
2018-09-30T00:12:03.581Z,82.60
2018-09-30T00:14:31.718Z,82.90
2018-09-30T00:17:00.027Z,82.80
2018-09-30T00:19:28.157Z,82.70
2018-09-30T00:21:56.273Z,83.10
2018-09-30T00:24:29.767Z,83.00
2018-09-30T00:26:59.319Z,83.30
2018-09-30T00:29:28.886Z,83.50
2018-09-30T00:31:57.687Z,83.50
2018-09-30T00:34:26.868Z,83.70
2018-09-30T00:36:56.646Z,83.50
2018-09-30T00:39:25.173Z,83.10
2018-09-30T00:41:53.761Z,83.40
2018-09-30T00:44:22.055Z,83.40
2018-09-30T00:46:50.216Z,84.90
2018-09-30T00:49:18.636Z,83.90
2018-09-30T00:51:46.779Z,84.40
2018-09-30T00:54:15.336Z,84.30
2018-09-30T00:56:43.724Z,84.30
2018-09-30T00:59:12.245Z,84.50
2018-09-30T01:01:40.410Z,84.60
2018-09-30T01:04:08.972Z,84.60
2018-09-30T01:06:37.243Z,84.70
2018-09-30T01:09:09.272Z,84.80
2018-09-30T01:11:37.432Z,85.30
2018-09-30T01:14:05.743Z,84.80
2018-09-30T01:16:34.127Z,84.90
2018-09-30T01:19:02.265Z,86.00
2018-09-30T01:21:30.406Z,84.40
2018-09-30T01:23:58.612Z,84.30
2018-09-30T01:26:26.776Z,84.80
2018-09-30T01:28:54.941Z,84.50
2018-09-30T01:31:23.172Z,84.70
2018-09-30T01:33:51.299Z,85.00
2018-09-30T01:36:19.497Z,85.30
2018-09-30T01:38:47.711Z,84.90
2018-09-30T01:41:15.859Z,85.20
2018-09-30T01:43:44.029Z,85.70
2018-09-30T01:46:12.180Z,85.20
2018-09-30T01:48:40.519Z,85.10
2018-09-30T01:51:08.673Z,85.10
2018-09-30T01:53:36.829Z,85.00
2018-09-30T01:56:04.984Z,85.40
2018-09-30T01:58:33.774Z,85.50
2018-09-30T02:01:01.942Z,85.30
2018-09-30T02:03:30.076Z,86.60
2018-09-30T02:05:58.230Z,85.90
2018-09-30T02:08:26.372Z,85.80
2018-09-30T02:10:54.628Z,85.90
2018-09-30T02:13:22.737Z,86.00
2018-09-30T02:15:50.954Z,85.90
2018-09-30T02:18:19.112Z,85.90
2018-09-30T02:20:47.221Z,86.20
2018-09-30T02:23:15.367Z,86.20
2018-09-30T02:25:43.509Z,86.10
2018-09-30T02:28:11.681Z,86.60
2018-09-30T02:30:39.808Z,86.30
2018-09-30T02:33:07.924Z,86.30
2018-09-30T02:35:36.079Z,86.10
2018-09-30T02:38:04.222Z,85.80
2018-09-30T02:40:32.383Z,84.20
2018-09-30T02:43:00.508Z,84.90
2018-09-30T02:45:28.645Z,82.70
2018-09-30T02:47:56.771Z,81.40
2018-09-30T02:50:24.896Z,81.90
2018-09-30T02:52:53.246Z,81.60
2018-09-30T02:55:21.392Z,80.00
2018-09-30T02:57:49.525Z,80.80
2018-09-30T03:00:17.652Z,80.80
2018-09-30T03:02:45.898Z,81.10
2018-09-30T03:05:14.048Z,81.40
2018-09-30T03:07:47.614Z,81.90
2018-09-30T03:10:15.864Z,82.20
2018-09-30T03:12:44.073Z,83.00
2018-09-30T03:15:12.186Z,83.40
2018-09-30T03:17:40.340Z,83.50
2018-09-30T03:20:08.523Z,83.40
2018-09-30T03:22:37.067Z,83.90
2018-09-30T03:25:05.262Z,84.00
2018-09-30T03:27:33.481Z,84.00
2018-09-30T03:30:02.384Z,85.20
2018-09-30T03:32:30.508Z,85.20
2018-09-30T03:34:58.672Z,84.70
2018-09-30T03:37:26.811Z,84.80
2018-09-30T03:39:54.984Z,84.90
2018-09-30T03:42:23.162Z,85.10
2018-09-30T03:44:51.827Z,85.40
2018-09-30T03:47:19.970Z,85.50
2018-09-30T03:49:48.093Z,85.90
2018-09-30T03:52:16.231Z,85.80
2018-09-30T03:54:44.364Z,85.60
2018-09-30T03:57:12.767Z,85.50
2018-09-30T03:59:40.956Z,86.00
2018-09-30T04:02:09.091Z,86.50
2018-09-30T04:04:37.408Z,86.20
2018-09-30T04:07:05.570Z,86.00
2018-09-30T04:09:33.713Z,86.20
2018-09-30T04:12:02.450Z,86.00
2018-09-30T04:14:30.603Z,86.40
2018-09-30T04:16:58.792Z,86.60
2018-09-30T04:19:26.868Z,86.90
2018-09-30T04:21:54.998Z,87.00
2018-09-30T04:24:23.140Z,87.20
2018-09-30T04:26:51.276Z,87.50
2018-09-30T04:29:19.444Z,87.50
2018-09-30T04:31:47.621Z,87.50
2018-09-30T04:34:15.764Z,87.30
2018-09-30T04:36:43.904Z,87.20
2018-09-30T04:39:12.057Z,87.00
2018-09-30T04:41:40.208Z,86.80
2018-09-30T04:44:08.342Z,87.00
2018-09-30T04:46:36.594Z,88.30
2018-09-30T04:49:04.788Z,87.10
2018-09-30T04:51:32.888Z,87.30
2018-09-30T04:54:01.041Z,87.20
2018-09-30T04:56:29.155Z,87.30
2018-09-30T04:58:57.303Z,87.40
2018-09-30T05:01:25.447Z,88.60
2018-09-30T05:03:53.694Z,88.80
2018-09-30T05:06:21.827Z,88.90
2018-09-30T05:08:49.985Z,89.00
2018-09-30T05:11:18.142Z,89.10
2018-09-30T05:13:46.523Z,89.30
2018-09-30T05:16:14.918Z,89.40
2018-09-30T05:18:43.025Z,89.10
2018-09-30T05:21:11.180Z,89.70
2018-09-30T05:23:39.349Z,89.80
2018-09-30T05:26:07.538Z,90.00
2018-09-30T05:28:35.729Z,90.00
2018-09-30T05:31:03.878Z,89.80
2018-09-30T05:33:32.096Z,90.10
2018-09-30T05:36:00.364Z,89.60
2018-09-30T05:38:28.573Z,89.50
2018-09-30T05:40:56.713Z,89.90
2018-09-30T05:43:24.924Z,90.00
2018-09-30T05:45:53.164Z,90.00
2018-09-30T05:48:21.308Z,90.00
2018-09-30T05:50:49.442Z,89.30
2018-09-30T05:53:17.600Z,90.00
2018-09-30T05:55:45.805Z,89.90
2018-09-30T05:58:13.949Z,90.00
2018-09-30T06:00:42.301Z,89.80
2018-09-30T06:03:10.426Z,90.00
2018-09-30T06:05:38.691Z,90.00
2018-09-30T06:08:06.843Z,90.10
2018-09-30T06:10:35.022Z,90.20
2018-09-30T06:13:03.148Z,90.10
2018-09-30T06:15:31.271Z,90.20
2018-09-30T06:17:59.761Z,90.00
2018-09-30T06:20:27.880Z,90.00
2018-09-30T06:22:56.011Z,89.00
2018-09-30T06:25:24.129Z,88.00
2018-09-30T06:27:52.265Z,87.50
2018-09-30T06:30:20.404Z,87.30
2018-09-30T06:32:48.528Z,87.00
2018-09-30T06:35:16.678Z,87.20
2018-09-30T06:37:44.818Z,87.10
2018-09-30T06:40:13.034Z,87.50
2018-09-30T06:42:41.110Z,87.70
2018-09-30T06:45:09.299Z,88.00
2018-09-30T06:47:37.424Z,87.70
2018-09-30T06:50:05.641Z,87.80
2018-09-30T06:52:33.808Z,88.20
2018-09-30T06:55:02.855Z,87.90
2018-09-30T06:57:30.978Z,87.60
2018-09-30T06:59:59.337Z,87.90
2018-09-30T07:02:27.484Z,86.50
2018-09-30T07:04:55.666Z,86.40
2018-09-30T07:07:24.260Z,86.50
2018-09-30T07:09:52.428Z,86.40
2018-09-30T07:12:20.574Z,86.50
2018-09-30T07:14:48.675Z,86.60
2018-09-30T07:17:16.812Z,86.30
2018-09-30T07:19:44.943Z,86.40
2018-09-30T07:22:13.088Z,86.60
2018-09-30T07:24:41.196Z,86.10
2018-09-30T07:27:09.943Z,85.30
2018-09-30T07:29:38.169Z,85.70
2018-09-30T07:32:06.315Z,85.40
2018-09-30T07:34:34.460Z,84.70
2018-09-30T07:37:02.923Z,83.60
2018-09-30T07:39:31.534Z,82.50
2018-09-30T07:41:59.616Z,82.70
2018-09-30T07:44:27.783Z,82.10
2018-09-30T07:46:55.910Z,78.30
2018-09-30T07:49:24.038Z,75.80
2018-09-30T07:51:52.154Z,76.30
2018-09-30T07:54:20.363Z,74.90
2018-09-30T07:56:48.496Z,72.70
2018-09-30T08:00:20.119Z,72.00
2018-09-30T08:02:48.247Z,71.10
2018-09-30T08:05:16.376Z,72.20
2018-09-30T08:07:44.524Z,72.10
2018-09-30T08:10:12.639Z,70.30
2018-09-30T08:12:40.848Z,69.20
2018-09-30T08:15:08.983Z,68.30
2018-09-30T08:17:37.096Z,67.80
2018-09-30T08:20:05.226Z,64.90
2018-09-30T08:22:33.360Z,64.10
2018-09-30T08:25:01.511Z,64.20
2018-09-30T08:27:29.925Z,63.40
2018-09-30T08:29:58.221Z,62.50
2018-09-30T08:32:26.641Z,60.50
2018-09-30T08:34:54.839Z,60.00
2018-09-30T08:37:28.519Z,60.30
2018-09-30T08:39:56.727Z,63.40
2018-09-30T08:42:24.791Z,60.50
2018-09-30T08:44:52.904Z,60.60
2018-09-30T08:47:21.174Z,58.10
2018-09-30T08:49:49.332Z,55.30
2018-09-30T08:52:17.465Z,50.30
2018-09-30T08:54:45.612Z,44.20
2018-09-30T08:57:13.919Z,40.50
2018-09-30T08:59:42.012Z,36.90
2018-09-30T09:02:10.566Z,33.20
2018-09-30T09:04:39.075Z,27.80
2018-09-30T09:07:07.228Z,28.40
2018-09-30T09:09:35.369Z,26.30
2018-09-30T09:12:03.488Z,25.70
2018-09-30T09:14:31.633Z,24.00
2018-09-30T09:16:59.767Z,23.00
2018-09-30T09:19:27.913Z,23.70
2018-09-30T09:21:56.122Z,22.40
2018-09-30T09:24:24.273Z,21.60
2018-09-30T09:29:21.999Z,21.40
2018-09-30T09:31:50.517Z,21.20
2018-09-30T09:34:18.653Z,21.70
2018-09-30T09:36:46.819Z,21.60
2018-09-30T09:39:14.937Z,21.30
2018-09-30T09:41:43.059Z,21.00
2018-09-30T09:44:11.184Z,21.40
2018-09-30T09:46:39.387Z,21.80
2018-09-30T09:49:07.526Z,20.90
2018-09-30T09:51:35.663Z,20.50
2018-09-30T09:54:03.812Z,20.80
2018-09-30T09:56:32.001Z,21.60
2018-09-30T09:59:00.552Z,22.10
2018-09-30T10:01:29.064Z,22.40
2018-09-30T10:03:57.212Z,21.70
2018-09-30T10:06:25.683Z,21.00
2018-09-30T10:08:53.808Z,19.70
2018-09-30T10:11:22.188Z,20.10
2018-09-30T10:13:50.328Z,20.00
2018-09-30T10:16:18.608Z,20.00
2018-09-30T10:18:46.773Z,20.40
2018-09-30T10:21:14.920Z,20.00
2018-09-30T10:23:43.060Z,20.20
2018-09-30T10:28:39.139Z,19.60
2018-09-30T10:31:07.460Z,19.60
2018-09-30T10:33:35.629Z,20.10
2018-09-30T10:36:04.028Z,20.30
2018-09-30T10:38:32.258Z,20.50
2018-09-30T10:41:00.303Z,20.50
2018-09-30T10:43:28.448Z,20.40
2018-09-30T10:45:57.037Z,20.00
2018-09-30T10:48:25.578Z,20.10
2018-09-30T10:50:53.688Z,20.70
2018-09-30T10:53:21.868Z,20.90
2018-09-30T10:55:50.604Z,19.90
2018-09-30T10:58:18.707Z,20.20
2018-09-30T11:00:46.839Z,20.20
2018-09-30T11:03:14.992Z,19.70
2018-09-30T11:05:43.112Z,19.10
2018-09-30T11:08:11.548Z,18.80
2018-09-30T11:10:39.695Z,18.70
2018-09-30T11:13:07.821Z,19.00
2018-09-30T11:15:36.032Z,19.20
2018-09-30T11:18:04.172Z,19.20
2018-09-30T11:20:32.293Z,19.40
2018-09-30T11:23:00.426Z,19.20
2018-09-30T11:25:28.561Z,19.60
2018-09-30T11:27:56.738Z,19.70
2018-09-30T11:30:24.938Z,19.50
2018-09-30T11:32:53.062Z,19.30
2018-09-30T11:35:21.236Z,19.00
2018-09-30T11:37:49.388Z,19.70
2018-09-30T11:40:17.531Z,19.20
2018-09-30T11:42:46.050Z,19.30
2018-09-30T11:45:14.127Z,19.50
2018-09-30T11:47:42.285Z,19.70
2018-09-30T11:50:10.408Z,19.10
2018-09-30T11:52:38.582Z,18.50
2018-09-30T11:55:06.684Z,18.40
2018-09-30T11:57:35.648Z,18.60
2018-09-30T12:00:03.820Z,18.50
2018-09-30T12:02:31.988Z,18.10
2018-09-30T12:05:00.129Z,18.10
2018-09-30T12:07:28.264Z,18.40
2018-09-30T12:09:56.629Z,18.70
2018-09-30T12:12:25.576Z,18.80
2018-09-30T12:14:53.713Z,18.60
2018-09-30T12:17:21.868Z,18.30
2018-09-30T12:19:50.010Z,19.00
2018-09-30T12:22:18.133Z,18.60
2018-09-30T12:24:46.695Z,18.20
2018-09-30T12:27:14.830Z,19.10
2018-09-30T12:29:42.974Z,18.10
2018-09-30T12:32:11.088Z,17.90
2018-09-30T12:34:39.243Z,18.20
2018-09-30T12:37:07.351Z,18.60
2018-09-30T12:39:35.497Z,17.70
2018-09-30T12:42:03.635Z,18.00
2018-09-30T12:44:32.012Z,18.30
2018-09-30T12:47:00.177Z,19.10
2018-09-30T12:49:28.308Z,17.80
2018-09-30T12:51:56.445Z,18.00
2018-09-30T12:54:25.448Z,17.60
2018-09-30T12:56:53.985Z,16.90
2018-09-30T12:59:22.140Z,18.70
2018-09-30T13:01:50.264Z,17.60
2018-09-30T13:04:18.460Z,18.20
2018-09-30T13:06:46.605Z,19.00
2018-09-30T13:09:14.719Z,17.50
2018-09-30T13:11:42.903Z,18.30
2018-09-30T13:14:11.031Z,18.60
2018-09-30T13:16:39.247Z,19.30
2018-09-30T13:19:07.434Z,18.40
2018-09-30T13:21:35.559Z,19.20
2018-09-30T13:24:03.763Z,18.80
2018-09-30T13:26:31.890Z,19.40
2018-09-30T13:29:00.027Z,18.50
2018-09-30T13:31:28.170Z,19.20
2018-09-30T13:33:56.330Z,18.20
2018-09-30T13:36:24.464Z,18.80
2018-09-30T13:38:52.580Z,18.00
2018-09-30T13:41:20.813Z,18.40
2018-09-30T13:43:48.939Z,18.50
2018-09-30T13:46:17.329Z,18.70
2018-09-30T13:51:13.268Z,18.70
2018-09-30T13:53:41.398Z,19.10
2018-09-30T13:56:09.536Z,18.90
2018-09-30T13:58:37.684Z,19.20
2018-09-30T14:01:05.902Z,19.70
2018-09-30T14:03:34.037Z,19.80
2018-09-30T14:06:02.314Z,19.00
2018-09-30T14:08:30.443Z,19.60
2018-09-30T14:10:58.584Z,19.50
2018-09-30T14:13:26.743Z,19.90
2018-09-30T14:15:54.888Z,20.40
2018-09-30T14:18:23.022Z,20.80
2018-09-30T14:20:51.148Z,20.40
2018-09-30T14:23:19.291Z,20.50
2018-09-30T14:28:15.391Z,21.70
2018-09-30T14:30:43.528Z,22.20
2018-09-30T14:33:11.663Z,21.80
2018-09-30T14:35:39.798Z,22.20
2018-09-30T14:38:07.928Z,23.10
2018-09-30T14:40:36.082Z,23.90
2018-09-30T14:43:04.215Z,24.70
2018-09-30T14:45:32.372Z,24.70
2018-09-30T14:48:00.553Z,25.00
2018-09-30T14:50:28.795Z,25.70
2018-09-30T14:52:57.036Z,25.60
2018-09-30T14:55:25.199Z,25.90
2018-09-30T14:57:53.333Z,24.60
2018-09-30T15:00:21.506Z,25.60
2018-09-30T15:02:49.643Z,26.20
2018-09-30T15:05:17.842Z,25.80
2018-09-30T15:07:45.996Z,26.20
2018-09-30T15:10:14.139Z,26.40
2018-09-30T15:12:42.301Z,26.10
2018-09-30T15:15:10.449Z,26.60
2018-09-30T15:17:38.632Z,26.90
2018-09-30T15:20:06.757Z,27.40
2018-09-30T15:22:35.335Z,27.30
2018-09-30T15:25:03.908Z,26.90
2018-09-30T15:27:32.011Z,26.80
2018-09-30T15:30:00.148Z,26.90
2018-09-30T15:32:28.314Z,26.50
2018-09-30T15:34:56.453Z,25.70
2018-09-30T15:37:25.302Z,26.30
2018-09-30T15:39:53.420Z,25.30
2018-09-30T15:42:21.918Z,25.70
2018-09-30T15:44:50.024Z,25.10
2018-09-30T15:47:18.153Z,25.20
2018-09-30T15:49:46.287Z,25.90
2018-09-30T15:52:14.456Z,25.60
2018-09-30T15:54:42.580Z,25.00
2018-09-30T15:57:10.727Z,25.80
2018-09-30T15:59:38.944Z,25.40
2018-09-30T16:02:07.065Z,26.30
2018-09-30T16:04:35.246Z,27.40
2018-09-30T16:07:03.993Z,26.80
2018-09-30T16:12:00.060Z,27.70
2018-09-30T16:14:28.212Z,30.00
2018-09-30T16:16:56.328Z,29.70
2018-09-30T16:19:24.607Z,30.50
2018-09-30T16:21:52.723Z,31.00
2018-09-30T16:24:20.933Z,31.40
2018-09-30T16:29:16.968Z,32.10
2018-09-30T16:31:45.134Z,32.90
2018-09-30T16:36:41.167Z,32.50
2018-09-30T16:39:10.083Z,32.40
2018-09-30T16:41:38.404Z,33.10
2018-09-30T16:44:06.570Z,32.30
2018-09-30T16:46:34.799Z,32.70
2018-09-30T16:51:31.843Z,32.60
2018-09-30T16:54:00.024Z,33.50
2018-09-30T16:58:56.252Z,33.50
2018-09-30T17:01:24.382Z,34.20
2018-09-30T17:03:52.519Z,34.50
2018-09-30T17:06:20.695Z,34.10
2018-09-30T17:08:48.852Z,34.70
2018-09-30T17:11:16.985Z,35.00
2018-09-30T17:13:45.122Z,34.90
2018-09-30T17:16:13.268Z,34.80
2018-09-30T17:18:41.458Z,34.70
2018-09-30T17:21:09.618Z,34.20
2018-09-30T17:23:37.817Z,34.60
2018-09-30T17:26:05.844Z,35.00
2018-09-30T17:28:34.171Z,34.70
2018-09-30T17:31:02.438Z,35.50
2018-09-30T17:33:30.533Z,34.60
2018-09-30T17:35:58.666Z,34.10
2018-09-30T17:38:26.889Z,35.10
2018-09-30T17:40:55.027Z,35.20
2018-09-30T17:43:23.159Z,35.50
2018-09-30T17:45:51.300Z,35.60
2018-09-30T17:48:19.426Z,35.90
2018-09-30T17:50:47.555Z,36.70
2018-09-30T17:55:43.618Z,37.40
2018-09-30T17:58:11.745Z,37.80
2018-09-30T18:00:39.891Z,37.80
2018-09-30T18:03:08.011Z,37.80
2018-09-30T18:05:36.668Z,37.60
2018-09-30T18:08:04.784Z,38.00
2018-09-30T18:10:33.016Z,38.00
2018-09-30T18:13:01.364Z,38.50
2018-09-30T18:15:29.517Z,39.00
2018-09-30T18:17:57.653Z,39.00
2018-09-30T18:20:25.804Z,39.40
2018-09-30T18:22:53.935Z,39.70
2018-09-30T18:25:22.113Z,39.60
2018-09-30T18:27:50.262Z,39.60
2018-09-30T18:30:18.555Z,39.20
2018-09-30T18:35:14.606Z,39.80
2018-09-30T18:37:42.765Z,40.10
2018-09-30T18:40:11.011Z,40.50
2018-09-30T18:45:07.222Z,41.40
2018-09-30T18:47:35.344Z,41.90
2018-09-30T18:50:04.615Z,41.50
2018-09-30T18:55:00.649Z,42.70
2018-09-30T18:57:28.821Z,42.00
2018-09-30T18:59:57.072Z,42.80
2018-09-30T19:02:25.215Z,43.20
2018-09-30T19:04:53.404Z,42.80
2018-09-30T19:07:21.560Z,43.50
2018-09-30T19:09:49.689Z,44.10
2018-09-30T19:12:17.808Z,42.30
2018-09-30T19:14:45.980Z,42.60
2018-09-30T19:17:14.076Z,43.20
2018-09-30T19:19:42.217Z,42.70
2018-09-30T19:22:10.357Z,44.30
2018-09-30T19:24:38.499Z,43.70
2018-09-30T19:27:06.615Z,44.40
2018-09-30T19:29:34.753Z,44.20
2018-09-30T19:32:02.879Z,45.40
2018-09-30T19:34:31.116Z,43.90
2018-09-30T19:36:59.251Z,44.00
2018-09-30T19:39:27.405Z,43.80
2018-09-30T19:41:55.611Z,43.60
2018-09-30T19:44:23.769Z,43.30
2018-09-30T19:46:51.914Z,43.00
2018-09-30T19:49:20.032Z,44.60
2018-09-30T19:51:48.147Z,43.90
2018-09-30T19:54:16.287Z,44.10
2018-09-30T19:56:44.475Z,44.00
2018-09-30T19:59:12.604Z,44.10
2018-09-30T20:01:40.899Z,43.30
2018-09-30T20:04:09.079Z,43.10
2018-09-30T20:06:37.259Z,44.40
2018-09-30T20:09:07.040Z,45.30
2018-09-30T20:11:35.196Z,44.20
2018-09-30T20:14:03.678Z,45.20
2018-09-30T20:16:31.836Z,44.80
2018-09-30T20:19:00.027Z,44.60
2018-09-30T20:21:28.315Z,44.80
2018-09-30T20:23:56.487Z,46.30
2018-09-30T20:26:24.689Z,45.30
2018-09-30T20:28:53.484Z,44.50
2018-09-30T20:31:21.680Z,45.10
2018-09-30T20:33:49.811Z,44.60
2018-09-30T20:36:17.927Z,44.80
2018-09-30T20:38:46.118Z,45.60
2018-09-30T20:41:14.247Z,46.40
2018-09-30T20:43:42.373Z,45.60
2018-09-30T20:46:10.512Z,45.20
2018-09-30T20:48:38.726Z,45.20
2018-09-30T20:51:06.804Z,45.50
2018-09-30T20:53:35.061Z,46.00
2018-09-30T20:56:03.246Z,45.70
2018-09-30T20:58:31.376Z,46.00
2018-09-30T21:00:59.532Z,47.40
2018-09-30T21:03:27.926Z,47.40
2018-09-30T21:06:33.641Z,48.30
2018-09-30T21:09:01.772Z,47.50
2018-09-30T21:11:29.953Z,47.80
2018-09-30T21:13:59.083Z,47.80
2018-09-30T21:16:27.256Z,47.60
2018-09-30T21:18:55.370Z,47.60
2018-09-30T21:21:23.625Z,48.30
2018-09-30T21:23:51.795Z,47.70
2018-09-30T21:26:20.069Z,48.10
2018-09-30T21:28:48.178Z,47.50
2018-09-30T21:31:16.333Z,48.30
2018-09-30T21:33:44.518Z,48.70
2018-09-30T21:36:12.723Z,49.10
2018-09-30T21:38:40.921Z,49.40
2018-09-30T21:41:09.061Z,49.40
2018-09-30T21:43:37.208Z,49.70
2018-09-30T21:46:05.397Z,50.40
2018-09-30T21:48:33.601Z,51.10
2018-09-30T21:51:01.773Z,49.90
2018-09-30T21:53:29.899Z,50.10
2018-09-30T21:55:58.101Z,50.60
2018-09-30T21:58:26.294Z,51.10
2018-09-30T22:00:56.514Z,51.30
2018-09-30T22:03:24.803Z,51.70
2018-09-30T22:05:52.951Z,52.30
2018-09-30T22:08:21.104Z,52.50
2018-09-30T22:10:49.520Z,53.10
2018-09-30T22:13:18.029Z,52.80
2018-09-30T22:15:46.495Z,53.40
2018-09-30T22:18:14.695Z,53.60
2018-09-30T22:20:42.828Z,54.30
2018-09-30T22:23:10.960Z,54.60
2018-09-30T22:25:39.216Z,55.70
2018-09-30T22:28:07.541Z,55.70
2018-09-30T22:30:35.702Z,56.20
2018-09-30T22:33:05.451Z,57.80
2018-09-30T22:35:33.556Z,57.30
2018-09-30T22:38:02.052Z,58.70
2018-09-30T22:40:30.190Z,58.20
2018-09-30T22:42:58.488Z,58.40
2018-09-30T22:45:26.666Z,58.70
2018-09-30T22:47:54.882Z,58.50
2018-09-30T22:50:23.163Z,59.50
2018-09-30T22:52:52.418Z,59.90
2018-09-30T22:55:20.545Z,61.30
2018-09-30T22:57:48.886Z,60.80
2018-09-30T23:00:17.082Z,61.60
2018-09-30T23:02:45.625Z,63.60
2018-09-30T23:05:13.795Z,64.90
2018-09-30T23:07:41.944Z,65.40
2018-09-30T23:10:11.541Z,66.20
2018-09-30T23:12:39.675Z,66.90
2018-09-30T23:15:07.876Z,66.80
2018-09-30T23:17:36.082Z,66.90
2018-09-30T23:20:05.121Z,67.40
2018-09-30T23:22:33.256Z,67.90
2018-09-30T23:25:01.412Z,68.20
2018-09-30T23:27:29.655Z,68.80
2018-09-30T23:29:58.511Z,71.50
2018-09-30T23:32:26.656Z,71.40
2018-09-30T23:34:54.801Z,73.00
2018-09-30T23:37:22.956Z,73.00
2018-09-30T23:39:51.162Z,72.50
2018-09-30T23:42:19.287Z,72.90
2018-09-30T23:44:47.432Z,73.20
2018-09-30T23:47:15.556Z,74.10
2018-09-30T23:49:43.717Z,74.70
2018-09-30T23:52:11.860Z,75.30
2018-09-30T23:54:40.037Z,76.50
2018-09-30T23:57:08.272Z,76.70
2018-09-30T23:59:36.447Z,76.10
